x

Neah Bay, - 6nm North Of Cape Flattery, Wa (traffic Separation Lighted Buoy) (46087) Wave Buoy

4:50 - Thu 30th Mar 2017 All times are PDT. -7 hours from GMT.

  • Sig Wave height 8.2ft
  • Swell Direction
  • Peak Period 12s
  • Average Period 7s
  • Wind
    18mph, 20mph gusts
  • Sea Temp 50°f
  • Aire Temp 50°f
  • Sea Pressure 1024.4mb
  • Neah Bay, - 6nm North Of Cape Flattery, Wa     (traffic Separation Lighted Buoy)
  • Neah Bay, - 6nm North Of Cape Flattery, Wa     (traffic Separation Lighted Buoy)

More Historic Weather Station data

Upgrade to MSW Pro to gain access to the past 30 days of data for over 8000 Wavebouys and Weather Stations around the globe.

Join Pro

Comparision Forecast

View Surf forecast
   
jue 03/30 4:50 8ft 12s 7s 18 20 mph 1024.4mb 50f 50f
4:20 8ft 12s 7s 18 20 mph 1024.3mb 50f 50f
3:50 8ft 7s 6s 20 25 mph 1024.2mb 50f 50f
3:20 8ft 13s 7s 20 22 mph 1024mb 50f 50f
2:50 9ft 13s 7s 18 22 mph 1023.8mb 50f 49f
2:20 9ft 12s 7s 16 20 mph 1023.4mb 50f 49f
1:50 8.5ft 13s 7s 16 20 mph 1023.1mb 50f 49f
1:20 8ft 13s 8s 18 22 mph 1022.9mb 50f 49f
12:50 8.5ft 7s 7s 16 20 mph 1022.7mb 50f 49f
12:20 8ft 14s 8s 18 20 mph 1022.5mb 50f 48f
11:50 8ft 13s 8s 16 20 mph 1022.2mb 50f 48f
11:20 8ft 12s 8s 16 18 mph 1022.1mb 50f 48f
10:50 7.5ft 7s 8s 16 18 mph 1021.8mb 50f 47f
10:20 7.5ft 8s 7s 18 22 mph 1021.4mb 50f 47f
9:50 7ft 11s 7s 18 22 mph 1020.9mb 50f 48f
9:20 7ft 8s 7s 20 25 mph 1020.5mb 49f 47f
8:50 7.5ft 14s 7s 22 27 mph 1020.2mb 49f 47f
8:20 7ft 9s 7s 20 25 mph 1019.9mb 49f 48f
7:50 8ft 14s 7s 22 27 mph 1019.5mb 49f 48f
7:20 9ft 14s 7s 20 25 mph 1019.2mb 49f 48f
6:50 9ft 13s 7s 20 25 mph 1018.7mb 49f 48f
6:20 9ft 9s 7s 16 20 mph 1018.5mb 49f 48f
5:50 9.5ft 11s 7s 16 22 mph 1018.2mb 50f 48f
5:20 9.5ft 11s 7s 18 25 mph 1018.2mb 50f 48f
4:50 10ft 10s 7s 22 29 mph 1017.7mb 49f 48f
4:20 10ft 7s 7s 22 27 mph 1017.5mb 49f 48f
3:50 9ft 14s 7s 20 25 mph 1017.5mb 49f 48f
3:20 9ft 14s 7s 22 27 mph 1017.3mb 49f 47f
2:50 9ft 9s 7s 22 27 mph 1017.1mb 49f 47f
2:20 9ft 14s 7s 22 27 mph 1017mb 49f 47f
1:50 10ft 12s 7s 20 27 mph 1017mb 50f 46f
1:20 9ft 13s 7s 20 25 mph 1016.8mb 50f 47f
12:50 9ft 8s 7s 22 25 mph 1016.4mb 50f 47f
12:20 8ft 14s 7s 20 25 mph 1016.4mb 50f 47f
mié 03/29 11:50 9ft 13s 7s 22 25 mph 1016.1mb 50f 48f
11:20 8ft 13s 8s 22 25 mph 1015.8mb 50f 48f
10:50 8.5ft 14s 7s 18 20 mph 1016mb 50f 47f
10:20 8.5ft 13s 7s 22 27 mph 1015.6mb 50f 47f
9:50 8ft 12s 7s 25 27 mph 1015.4mb 50f 47f
9:20 9ft 14s 7s 20 25 mph 1015.1mb 50f 48f
8:50 8.5ft 14s 7s 20 27 mph 1014.6mb 50f 48f
8:20 8.5ft 14s 7s 25 29 mph 1014.2mb 50f 48f
7:50 8.5ft 14s 7s 25 29 mph 1014mb 50f 47f
7:20 8ft 15s 7s 25 29 mph 1013.8mb 50f 47f
6:50 8.5ft 14s 7s 25 27 mph 1013.3mb 50f 47f
6:20 8ft 15s 7s 22 29 mph 1013mb 50f 48f
5:50 8ft 14s 7s 22 27 mph 1012.9mb 50f 47f
5:20 10ft 15s 7s 25 29 mph 1012.4mb 50f 48f
4:50 10.5ft 15s 7s 22 29 mph 1012.1mb 50f 48f
4:20 11ft 8s 7s 25 29 mph 1011.7mb 50f 48f
3:50 10.5ft 15s 7s 25 29 mph 1011.2mb 50f 49f
3:20 9.5ft 14s 7s 22 27 mph 1011mb 50f 48f
2:50 10ft 10s 7s 27 31 mph 1010.3mb 50f 48f
2:20 10ft 12s 7s 27 31 mph 1009.9mb 50f 48f
1:50 10ft 11s 7s 27 34 mph 1009.4mb 50f 48f
1:20 10ft 11s 8s 25 31 mph 1008.8mb 50f 49f
12:50 9ft 15s 8s 27 31 mph 1007.9mb 50f 48f
12:20 10.5ft 15s 9s 22 27 mph 1007.1mb 50f 48f
11:50 9ft 16s 8s 18 22 mph 1006.5mb 50f 49f
11:20 9ft 14s 8s 18 22 mph 1006.5mb 50f 49f
10:50 10ft 16s 8s 18 20 mph 1006.1mb 50f 49f
10:20 9ft 14s 8s 18 27 mph 1005.8mb 50f 47f
9:50 10ft 15s 8s 25 29 mph 1005.4mb 50f 46f
9:20 9.5ft 16s 8s 25 31 mph 1005.4mb 50f 46f
8:50 9ft 16s 8s 27 31 mph 1005.5mb 50f 47f
8:20 9ft 13s 8s 22 29 mph 1005.9mb 50f 47f
7:50 8ft 15s 8s 25 29 mph 1006.2mb 50f 47f
7:20 8.5ft 16s 9s 22 29 mph 1006.4mb 50f 47f
6:50 9ft 16s 9s 18 22 mph 1007.1mb 50f 47f
6:20 9.5ft 12s 8s 16 22 mph 1007.5mb 50f 47f
5:50 9ft 16s 9s 20 22 mph 1007.9mb 50f 48f
5:20 8.5ft 16s 8s 18 22 mph 1008.6mb 50f 48f
4:50 8.5ft 11s 8s 20 25 mph 1009mb 49f 48f
4:20 8.5ft 11s 8s 18 22 mph 1009.7mb 49f 48f
3:50 9.5ft 11s 8s 18 22 mph 1010.3mb 49f 48f
3:20 10ft 15s 9s 16 20 mph 1011.2mb 49f 48f
2:50 10ft 16s 8s 18 22 mph 1011.8mb 50f 48f
2:20 10ft 11s 8s 18 22 mph 1012.7mb 50f 48f
1:50 10ft 16s 8s 16 20 mph 1013.4mb 50f 48f
1:20 10ft 10s 8s 20 25 mph 1013.8mb 50f 48f
12:50 10ft 11s 8s 18 22 mph 1014.6mb 50f 48f
12:20 9.5ft 16s 8s 20 25 mph 1015mb 50f 48f
mar 03/28 11:50 9.5ft 11s 9s 18 22 mph 1015.5mb 50f 48f
11:20 9.5ft 10s 9s 18 22 mph 1016.1mb 50f 48f
10:50 9ft 15s 9s 16 20 mph 1016.4mb 50f 48f
10:20 9ft 16s 9s 13 18 mph 1016.7mb 50f 49f
9:50 9ft 11s 9s 11 16 mph 1017.4mb 50f 48f
9:20 8ft 16s 9s 11 18 mph 1017.8mb 50f 48f
8:50 8ft 11s 8s 9 16 mph 1017.9mb 50f 48f
8:20 8.5ft 10s 8s 7 13 mph 1018.2mb 50f 48f
7:50 8ft 14s 9s 9 11 mph 1018mb 50f 49f
7:20 7ft 11s 8s 13 16 mph 1018mb 50f 49f
6:50 7ft 11s 8s 13 16 mph 1018.2mb 50f 49f
6:20 9ft 15s 8s 13 16 mph 1018.4mb 50f 49f
5:50 10.5ft 16s 8s 16 18 mph 1018.2mb 50f 49f
5:20 11ft 11s 8s 13 18 mph 1018.4mb 50f 49f
4:50 12ft 11s 9s 16 18 mph 1018.3mb 50f 49f
4:20 12ft 11s 9s 16 20 mph 1018.2mb 50f 49f
3:50 12ft 16s 9s 18 22 mph 1018.3mb 50f 49f
3:20 13ft 11s 8s 18 20 mph 1018.3mb 50f 49f
2:50 11.5ft 8s 8s 18 22 mph 1018.3mb 50f 49f
2:20 11ft 9s 8s 20 25 mph 1018.3mb 50f 50f
1:50 13ft 16s 8s 22 27 mph 1018.1mb 50f 49f
12:50 12.5ft 17s 8s 22 27 mph 1018.2mb 49f 49f
11:50 11ft 8s 8s 22 29 mph 1018mb 49f 49f
10:50 11ft 11s 9s 20 27 mph 1018.1mb 49f 49f
8:20 9.5ft 17s 8s 22 27 mph 1017.5mb 49f 49f
7:50 9.5ft 11s 8s 22 27 mph 1017.3mb 49f 49f
7:20 9ft 11s 8s 22 27 mph 1017.4mb 49f 49f
6:50 8.5ft 12s 8s 25 29 mph 1017.2mb 49f 49f
6:20 9ft 11s 8s 25 31 mph 1017.5mb 49f 49f
5:50 10ft 12s 8s 25 29 mph 1017.4mb 49f 48f
5:20 9.5ft 11s 8s 22 27 mph 1017.8mb 49f 48f
4:50 10ft 12s 8s 25 31 mph 1018.3mb 49f 49f
4:20 10ft 11s 7s 25 29 mph 1017.9mb 49f 49f
3:50 11ft 11s 8s 25 31 mph 1018.3mb 49f 49f
3:20 10ft 12s 8s 22 31 mph 1018.6mb 49f 49f
2:50 11ft 11s 8s 25 29 mph 1018.7mb 49f 48f
2:20 10.5ft 11s 8s 25 29 mph 1018.4mb 49f 48f
1:50 10.5ft 12s 7s 25 29 mph 1018.7mb 50f 47f
1:20 11.5ft 11s 8s 25 31 mph 1019mb 50f 47f
12:50 12.5ft 11s 8s 25 31 mph 1019.6mb 50f 47f
12:20 10.5ft 12s 8s 22 29 mph 1019.9mb 50f 47f
lun 03/27 11:50 11ft 11s 8s 20 29 mph 1020.2mb 50f 46f
11:20 11.5ft 11s 9s 20 25 mph 1020.7mb 50f 46f
10:50 11.5ft 12s 9s 22 27 mph 1021.3mb 50f 46f
10:20 10.5ft 12s 9s 22 27 mph 1021.2mb 50f 46f
9:50 10.5ft 12s 9s 22 29 mph 1021.1mb 50f 46f
9:20 11ft 12s 10s 18 20 mph 1021.1mb 50f 46f
8:50 9.5ft 13s 9s 16 20 mph 1021mb 50f 47f
8:20 10ft 12s 9s 20 25 mph 1020.8mb 50f 47f
7:50 10ft 12s 9s 20 25 mph 1020.7mb 50f 47f
7:20 9ft 12s 8s 18 22 mph 1020.6mb 50f 47f
6:50 9ft 13s 9s 20 25 mph 1020.5mb 50f 46f
6:20 9ft 13s 9s 16 20 mph 1020.3mb 50f 46f
5:50 8ft 12s 8s 20 25 mph 1020.1mb 50f 47f
5:20 10ft 13s 9s 20 25 mph 1020mb 50f 46f
4:50 10ft 13s 9s 18 20 mph 1019.7mb 50f 48f
4:20 9.5ft 11s 9s 18 20 mph 1019.5mb 50f 48f
3:50 8ft 13s 8s 16 20 mph 1019.6mb 50f 49f
3:20 8ft 14s 8s 16 18 mph 1019.4mb 50f 48f
2:50 7.5ft 14s 7s 16 18 mph 1019.3mb 50f 47f
2:20 7ft 8s 7s 18 20 mph 1019.2mb 50f 49f
1:50 7ft 9s 7s 16 20 mph 1018.7mb 50f 49f
1:20 7.5ft 9s 7s 13 18 mph 1018.4mb 50f 48f
12:50 7.5ft 9s 7s 18 20 mph 1017.4mb 50f 49f
12:20 7ft 8s 7s 13 20 mph 1016.9mb 50f 48f
11:50 7.5ft 8s 7s 11 16 mph 1016.8mb 49f 49f
11:20 6.5ft 9s 7s 13 18 mph 1016mb 49f 49f
10:50 6.5ft 9s 7s 16 20 mph 1015.8mb 49f 48f
10:20 6ft 8s 7s 11 20 mph 1014.9mb 49f 48f
9:50 5.5ft 9s 7s 11 13 mph 1014.4mb 49f 45f
9:20 5ft 9s 7s 18 22 mph 1014.3mb 49f 46f
8:50 4.5ft 10s 8s 7 9 mph 1014mb 49f 46f
8:20 4.5ft 9s 7s 11 13 mph 1013.4mb 49f 47f
7:50 4.5ft 9s 7s 11
mph
1012.7mb 49f 46f
7:20 4.5ft 11s 6s 11 13 mph 1012.3mb 49f 46f
6:50 4.5ft 10s 7s 13 16 mph 1012.2mb 49f 46f
6:20 4.5ft 9s 7s 13 16 mph 1011.8mb 49f 47f
5:50 4.5ft 10s 7s 11 13 mph 1011.5mb 49f 47f
5:20 4.5ft 10s 7s 11 13 mph 1011.1mb 49f 47f
4:50 4.5ft 9s 7s 13 16 mph 1010.7mb 49f 47f
4:20 4.5ft 11s 7s 16 18 mph 1010.1mb 49f 47f
3:50 4.5ft 10s 7s 11 13 mph 1009.9mb 49f 48f
3:20 5ft 11s 7s 13 18 mph 1009.7mb 49f 47f
2:50 4.5ft 10s 6s 13 16 mph 1009.6mb 49f 45f
2:20 4.5ft 11s 7s 13 18 mph 1008.8mb 49f 48f
1:50 5.5ft 10s 7s 11 13 mph 1008.8mb 49f 48f
1:20 5ft 9s 7s 11 16 mph 1008.6mb 49f 48f